sensor_id;sensor_type;location;lat;lon;timestamp;P1;durP1;ratioP1;P2;durP2;ratioP2
2934;SDS011;2462;51.456;7.248;2023-07-28T00:01:33;1.10;;;0.93;;
2934;SDS011;2462;51.456;7.248;2023-07-28T00:03:58;1.67;;;0.87;;
2934;SDS011;2462;51.456;7.248;2023-07-28T00:06:24;1.00;;;0.80;;
2934;SDS011;2462;51.456;7.248;2023-07-28T00:08:49;3.97;;;1.23;;
2934;SDS011;2462;51.456;7.248;2023-07-28T00:11:15;1.87;;;0.83;;
2934;SDS011;2462;51.456;7.248;2023-07-28T00:13:41;1.63;;;0.90;;
2934;SDS011;2462;51.456;7.248;2023-07-28T00:16:08;1.00;;;0.80;;
2934;SDS011;2462;51.456;7.248;2023-07-28T00:18:34;2.33;;;1.10;;
2934;SDS011;2462;51.456;7.248;2023-07-28T00:21:00;1.20;;;0.90;;
2934;SDS011;2462;51.456;7.248;2023-07-28T00:23:26;1.10;;;0.83;;
2934;SDS011;2462;51.456;7.248;2023-07-28T00:25:52;1.47;;;0.90;;
2934;SDS011;2462;51.456;7.248;2023-07-28T00:28:18;1.60;;;1.00;;
2934;SDS011;2462;51.456;7.248;2023-07-28T00:30:43;1.10;;;1.00;;
2934;SDS011;2462;51.456;7.248;2023-07-28T00:33:09;2.13;;;1.00;;
2934;SDS011;2462;51.456;7.248;2023-07-28T00:35:34;1.30;;;0.93;;
2934;SDS011;2462;51.456;7.248;2023-07-28T00:38:01;1.10;;;0.93;;
2934;SDS011;2462;51.456;7.248;2023-07-28T00:40:26;1.20;;;0.80;;
2934;SDS011;2462;51.456;7.248;2023-07-28T00:42:52;2.30;;;1.10;;
2934;SDS011;2462;51.456;7.248;2023-07-28T00:45:17;1.83;;;1.00;;
2934;SDS011;2462;51.456;7.248;2023-07-28T00:47:43;1.20;;;0.90;;
2934;SDS011;2462;51.456;7.248;2023-07-28T00:50:10;1.10;;;0.80;;
2934;SDS011;2462;51.456;7.248;2023-07-28T00:52:36;1.83;;;0.90;;
2934;SDS011;2462;51.456;7.248;2023-07-28T00:55:02;3.30;;;1.00;;
2934;SDS011;2462;51.456;7.248;2023-07-28T00:57:28;1.77;;;0.97;;
2934;SDS011;2462;51.456;7.248;2023-07-28T00:59:54;7.97;;;1.00;;
2934;SDS011;2462;51.456;7.248;2023-07-28T01:02:20;1.40;;;0.83;;
2934;SDS011;2462;51.456;7.248;2023-07-28T01:04:46;1.20;;;0.80;;
2934;SDS011;2462;51.456;7.248;2023-07-28T01:09:52;2.13;;;0.80;;
2934;SDS011;2462;51.456;7.248;2023-07-28T01:12:27;1.33;;;0.77;;
2934;SDS011;2462;51.456;7.248;2023-07-28T01:14:53;1.80;;;0.70;;
2934;SDS011;2462;51.456;7.248;2023-07-28T01:17:18;1.30;;;0.70;;
2934;SDS011;2462;51.456;7.248;2023-07-28T01:19:44;1.20;;;0.80;;
2934;SDS011;2462;51.456;7.248;2023-07-28T01:27:53;1.10;;;0.80;;
2934;SDS011;2462;51.456;7.248;2023-07-28T01:30:19;0.90;;;0.70;;
2934;SDS011;2462;51.456;7.248;2023-07-28T01:32:46;2.63;;;0.90;;
2934;SDS011;2462;51.456;7.248;2023-07-28T01:35:12;0.93;;;0.73;;
2934;SDS011;2462;51.456;7.248;2023-07-28T01:37:38;1.00;;;0.70;;
2934;SDS011;2462;51.456;7.248;2023-07-28T01:40:03;1.10;;;0.80;;
2934;SDS011;2462;51.456;7.248;2023-07-28T01:42:29;1.50;;;0.80;;
2934;SDS011;2462;51.456;7.248;2023-07-28T01:44:55;1.10;;;0.70;;
2934;SDS011;2462;51.456;7.248;2023-07-28T01:47:20;1.10;;;0.70;;
2934;SDS011;2462;51.456;7.248;2023-07-28T01:49:46;0.93;;;0.70;;
2934;SDS011;2462;51.456;7.248;2023-07-28T01:52:11;1.00;;;0.80;;
2934;SDS011;2462;51.456;7.248;2023-07-28T01:54:37;1.00;;;0.60;;
2934;SDS011;2462;51.456;7.248;2023-07-28T01:57:03;1.00;;;0.77;;
2934;SDS011;2462;51.456;7.248;2023-07-28T01:59:29;1.27;;;0.60;;
2934;SDS011;2462;51.456;7.248;2023-07-28T02:01:54;2.80;;;0.90;;
2934;SDS011;2462;51.456;7.248;2023-07-28T02:04:20;2.13;;;0.93;;
2934;SDS011;2462;51.456;7.248;2023-07-28T02:06:45;1.10;;;0.80;;
2934;SDS011;2462;51.456;7.248;2023-07-28T02:09:11;2.13;;;1.00;;
2934;SDS011;2462;51.456;7.248;2023-07-28T02:11:36;1.00;;;0.63;;
2934;SDS011;2462;51.456;7.248;2023-07-28T02:14:02;1.33;;;0.80;;
2934;SDS011;2462;51.456;7.248;2023-07-28T02:16:27;2.70;;;1.00;;
2934;SDS011;2462;51.456;7.248;2023-07-28T02:18:55;1.00;;;0.70;;
2934;SDS011;2462;51.456;7.248;2023-07-28T02:21:21;1.20;;;0.70;;
2934;SDS011;2462;51.456;7.248;2023-07-28T02:23:47;1.20;;;0.70;;
2934;SDS011;2462;51.456;7.248;2023-07-28T02:26:13;0.90;;;0.60;;
2934;SDS011;2462;51.456;7.248;2023-07-28T02:28:39;1.00;;;0.73;;
2934;SDS011;2462;51.456;7.248;2023-07-28T02:31:04;1.00;;;0.70;;
2934;SDS011;2462;51.456;7.248;2023-07-28T02:33:30;1.00;;;0.70;;
2934;SDS011;2462;51.456;7.248;2023-07-28T02:35:56;1.40;;;0.70;;
2934;SDS011;2462;51.456;7.248;2023-07-28T02:38:22;1.23;;;0.60;;
2934;SDS011;2462;51.456;7.248;2023-07-28T02:40:47;1.00;;;0.70;;
2934;SDS011;2462;51.456;7.248;2023-07-28T02:43:13;1.37;;;0.70;;
2934;SDS011;2462;51.456;7.248;2023-07-28T02:45:38;1.30;;;0.60;;
2934;SDS011;2462;51.456;7.248;2023-07-28T02:48:04;1.50;;;0.80;;
2934;SDS011;2462;51.456;7.248;2023-07-28T02:50:30;1.73;;;0.60;;
2934;SDS011;2462;51.456;7.248;2023-07-28T02:52:55;1.10;;;0.67;;
2934;SDS011;2462;51.456;7.248;2023-07-28T02:55:21;1.00;;;0.73;;
2934;SDS011;2462;51.456;7.248;2023-07-28T02:57:46;0.90;;;0.60;;
2934;SDS011;2462;51.456;7.248;2023-07-28T03:00:12;0.90;;;0.70;;
2934;SDS011;2462;51.456;7.248;2023-07-28T03:02:39;1.30;;;0.77;;
2934;SDS011;2462;51.456;7.248;2023-07-28T03:05:04;1.13;;;0.73;;
2934;SDS011;2462;51.456;7.248;2023-07-28T03:07:30;1.00;;;0.60;;
2934;SDS011;2462;51.456;7.248;2023-07-28T03:09:56;1.10;;;0.60;;
2934;SDS011;2462;51.456;7.248;2023-07-28T03:12:22;1.20;;;0.90;;
2934;SDS011;2462;51.456;7.248;2023-07-28T03:14:47;0.90;;;0.60;;
2934;SDS011;2462;51.456;7.248;2023-07-28T03:17:13;1.20;;;0.67;;
2934;SDS011;2462;51.456;7.248;2023-07-28T03:19:38;2.90;;;0.80;;
2934;SDS011;2462;51.456;7.248;2023-07-28T03:22:04;0.90;;;0.60;;
2934;SDS011;2462;51.456;7.248;2023-07-28T03:24:30;2.70;;;0.60;;
2934;SDS011;2462;51.456;7.248;2023-07-28T03:26:55;1.47;;;0.83;;
2934;SDS011;2462;51.456;7.248;2023-07-28T03:29:21;1.63;;;0.80;;
2934;SDS011;2462;51.456;7.248;2023-07-28T03:31:47;1.00;;;0.70;;
2934;SDS011;2462;51.456;7.248;2023-07-28T03:34:12;0.90;;;0.60;;
2934;SDS011;2462;51.456;7.248;2023-07-28T03:36:38;1.10;;;0.70;;
2934;SDS011;2462;51.456;7.248;2023-07-28T03:39:03;1.20;;;0.70;;
2934;SDS011;2462;51.456;7.248;2023-07-28T03:41:29;0.90;;;0.60;;
2934;SDS011;2462;51.456;7.248;2023-07-28T03:43:54;1.13;;;0.60;;
2934;SDS011;2462;51.456;7.248;2023-07-28T03:46:20;0.90;;;0.57;;
2934;SDS011;2462;51.456;7.248;2023-07-28T03:48:46;0.90;;;0.53;;
2934;SDS011;2462;51.456;7.248;2023-07-28T03:51:11;0.90;;;0.60;;
2934;SDS011;2462;51.456;7.248;2023-07-28T03:53:37;0.90;;;0.60;;
2934;SDS011;2462;51.456;7.248;2023-07-28T03:56:02;1.00;;;0.63;;
2934;SDS011;2462;51.456;7.248;2023-07-28T03:58:28;0.90;;;0.60;;
2934;SDS011;2462;51.456;7.248;2023-07-28T04:00:54;1.20;;;0.60;;
2934;SDS011;2462;51.456;7.248;2023-07-28T04:03:20;2.40;;;0.90;;
2934;SDS011;2462;51.456;7.248;2023-07-28T04:05:46;0.90;;;0.60;;
2934;SDS011;2462;51.456;7.248;2023-07-28T04:08:11;0.90;;;0.60;;
2934;SDS011;2462;51.456;7.248;2023-07-28T04:10:37;0.90;;;0.60;;
2934;SDS011;2462;51.456;7.248;2023-07-28T04:13:02;1.10;;;0.60;;
2934;SDS011;2462;51.456;7.248;2023-07-28T04:15:28;1.10;;;0.60;;
2934;SDS011;2462;51.456;7.248;2023-07-28T04:17:53;2.53;;;0.50;;
2934;SDS011;2462;51.456;7.248;2023-07-28T04:20:19;0.83;;;0.60;;
2934;SDS011;2462;51.456;7.248;2023-07-28T04:22:44;1.33;;;0.60;;
2934;SDS011;2462;51.456;7.248;2023-07-28T04:25:10;1.33;;;0.60;;
2934;SDS011;2462;51.456;7.248;2023-07-28T04:27:35;0.90;;;0.70;;
2934;SDS011;2462;51.456;7.248;2023-07-28T04:30:01;0.90;;;0.50;;
2934;SDS011;2462;51.456;7.248;2023-07-28T04:32:27;0.90;;;0.60;;
2934;SDS011;2462;51.456;7.248;2023-07-28T04:34:52;0.90;;;0.63;;
2934;SDS011;2462;51.456;7.248;2023-07-28T04:37:18;0.90;;;0.50;;
2934;SDS011;2462;51.456;7.248;2023-07-28T04:39:44;1.00;;;0.60;;
2934;SDS011;2462;51.456;7.248;2023-07-28T04:42:09;1.13;;;0.60;;
2934;SDS011;2462;51.456;7.248;2023-07-28T04:44:36;0.90;;;0.60;;
2934;SDS011;2462;51.456;7.248;2023-07-28T04:47:02;1.10;;;0.77;;
2934;SDS011;2462;51.456;7.248;2023-07-28T04:49:28;0.90;;;0.60;;
2934;SDS011;2462;51.456;7.248;2023-07-28T04:51:53;0.90;;;0.50;;
2934;SDS011;2462;51.456;7.248;2023-07-28T04:54:19;0.90;;;0.60;;
2934;SDS011;2462;51.456;7.248;2023-07-28T04:56:44;0.90;;;0.50;;
2934;SDS011;2462;51.456;7.248;2023-07-28T04:59:11;1.80;;;0.60;;
2934;SDS011;2462;51.456;7.248;2023-07-28T05:01:36;0.90;;;0.53;;
2934;SDS011;2462;51.456;7.248;2023-07-28T05:04:02;0.90;;;0.60;;
2934;SDS011;2462;51.456;7.248;2023-07-28T05:06:27;0.90;;;0.50;;
2934;SDS011;2462;51.456;7.248;2023-07-28T05:08:53;1.73;;;0.60;;
2934;SDS011;2462;51.456;7.248;2023-07-28T05:11:18;0.90;;;0.60;;
2934;SDS011;2462;51.456;7.248;2023-07-28T05:13:44;1.03;;;0.50;;
2934;SDS011;2462;51.456;7.248;2023-07-28T05:16:09;0.90;;;0.50;;
2934;SDS011;2462;51.456;7.248;2023-07-28T05:18:35;1.10;;;0.60;;
2934;SDS011;2462;51.456;7.248;2023-07-28T05:21:02;0.87;;;0.57;;
2934;SDS011;2462;51.456;7.248;2023-07-28T05:23:27;1.30;;;0.50;;
2934;SDS011;2462;51.456;7.248;2023-07-28T05:25:53;0.97;;;0.60;;
2934;SDS011;2462;51.456;7.248;2023-07-28T05:28:18;0.90;;;0.60;;
2934;SDS011;2462;51.456;7.248;2023-07-28T05:30:44;0.80;;;0.50;;
2934;SDS011;2462;51.456;7.248;2023-07-28T05:33:10;0.90;;;0.50;;
2934;SDS011;2462;51.456;7.248;2023-07-28T05:35:35;0.87;;;0.53;;
2934;SDS011;2462;51.456;7.248;2023-07-28T05:38:01;0.90;;;0.50;;
2934;SDS011;2462;51.456;7.248;2023-07-28T05:40:26;0.90;;;0.60;;
2934;SDS011;2462;51.456;7.248;2023-07-28T05:42:52;0.90;;;0.50;;
2934;SDS011;2462;51.456;7.248;2023-07-28T05:45:17;0.87;;;0.50;;
2934;SDS011;2462;51.456;7.248;2023-07-28T05:47:44;0.80;;;0.50;;
2934;SDS011;2462;51.456;7.248;2023-07-28T05:50:10;1.83;;;0.50;;
2934;SDS011;2462;51.456;7.248;2023-07-28T05:52:35;0.90;;;0.50;;
2934;SDS011;2462;51.456;7.248;2023-07-28T05:55:01;1.10;;;0.50;;
2934;SDS011;2462;51.456;7.248;2023-07-28T05:57:26;0.90;;;0.60;;
2934;SDS011;2462;51.456;7.248;2023-07-28T05:59:52;0.90;;;0.50;;
2934;SDS011;2462;51.456;7.248;2023-07-28T06:02:18;0.80;;;0.50;;
2934;SDS011;2462;51.456;7.248;2023-07-28T06:04:43;1.00;;;0.70;;
2934;SDS011;2462;51.456;7.248;2023-07-28T06:07:09;1.00;;;0.60;;
2934;SDS011;2462;51.456;7.248;2023-07-28T06:09:35;1.07;;;0.70;;
2934;SDS011;2462;51.456;7.248;2023-07-28T06:12:00;1.00;;;0.60;;
2934;SDS011;2462;51.456;7.248;2023-07-28T06:14:26;1.00;;;0.70;;
2934;SDS011;2462;51.456;7.248;2023-07-28T06:16:51;0.90;;;0.60;;
2934;SDS011;2462;51.456;7.248;2023-07-28T06:19:17;0.90;;;0.63;;
2934;SDS011;2462;51.456;7.248;2023-07-28T06:21:48;1.00;;;0.63;;
2934;SDS011;2462;51.456;7.248;2023-07-28T06:24:15;1.13;;;0.60;;
2934;SDS011;2462;51.456;7.248;2023-07-28T06:26:41;0.93;;;0.63;;
2934;SDS011;2462;51.456;7.248;2023-07-28T06:29:06;1.00;;;0.77;;
2934;SDS011;2462;51.456;7.248;2023-07-28T06:31:32;0.90;;;0.60;;
2934;SDS011;2462;51.456;7.248;2023-07-28T06:33:57;0.90;;;0.50;;
2934;SDS011;2462;51.456;7.248;2023-07-28T06:36:23;1.40;;;1.07;;
2934;SDS011;2462;51.456;7.248;2023-07-28T06:38:49;1.70;;;1.60;;
2934;SDS011;2462;51.456;7.248;2023-07-28T06:41:16;3.90;;;2.53;;
2934;SDS011;2462;51.456;7.248;2023-07-28T06:43:41;1.90;;;1.70;;
2934;SDS011;2462;51.456;7.248;2023-07-28T06:46:07;3.00;;;1.73;;
2934;SDS011;2462;51.456;7.248;2023-07-28T06:48:33;1.70;;;1.30;;
2934;SDS011;2462;51.456;7.248;2023-07-28T06:50:58;2.77;;;1.53;;
2934;SDS011;2462;51.456;7.248;2023-07-28T06:53:24;1.80;;;1.50;;
2934;SDS011;2462;51.456;7.248;2023-07-28T06:55:49;1.60;;;1.23;;
2934;SDS011;2462;51.456;7.248;2023-07-28T06:58:15;1.57;;;1.47;;
2934;SDS011;2462;51.456;7.248;2023-07-28T07:00:41;6.10;;;1.27;;
2934;SDS011;2462;51.456;7.248;2023-07-28T07:03:07;3.13;;;1.40;;
2934;SDS011;2462;51.456;7.248;2023-07-28T07:05:33;1.40;;;1.30;;
2934;SDS011;2462;51.456;7.248;2023-07-28T07:07:58;2.70;;;1.30;;
2934;SDS011;2462;51.456;7.248;2023-07-28T07:10:25;1.60;;;1.50;;
2934;SDS011;2462;51.456;7.248;2023-07-28T07:12:51;3.50;;;1.77;;
2934;SDS011;2462;51.456;7.248;2023-07-28T07:15:17;2.60;;;1.40;;
2934;SDS011;2462;51.456;7.248;2023-07-28T07:17:42;1.83;;;1.63;;
2934;SDS011;2462;51.456;7.248;2023-07-28T07:20:08;1.77;;;1.37;;
2934;SDS011;2462;51.456;7.248;2023-07-28T07:22:35;1.23;;;1.13;;
2934;SDS011;2462;51.456;7.248;2023-07-28T07:25:01;2.07;;;1.20;;
2934;SDS011;2462;51.456;7.248;2023-07-28T07:27:29;2.43;;;1.33;;
2934;SDS011;2462;51.456;7.248;2023-07-28T07:29:54;1.77;;;1.43;;
2934;SDS011;2462;51.456;7.248;2023-07-28T07:32:20;1.70;;;1.60;;
2934;SDS011;2462;51.456;7.248;2023-07-28T07:34:45;1.60;;;1.50;;
2934;SDS011;2462;51.456;7.248;2023-07-28T07:37:11;2.40;;;2.20;;
2934;SDS011;2462;51.456;7.248;2023-07-28T07:39:36;3.17;;;2.87;;
2934;SDS011;2462;51.456;7.248;2023-07-28T07:42:03;5.53;;;3.00;;
2934;SDS011;2462;51.456;7.248;2023-07-28T07:44:30;3.57;;;2.90;;
2934;SDS011;2462;51.456;7.248;2023-07-28T07:46:55;5.30;;;3.63;;
2934;SDS011;2462;51.456;7.248;2023-07-28T07:49:21;3.20;;;2.90;;
2934;SDS011;2462;51.456;7.248;2023-07-28T07:51:47;2.90;;;2.70;;
2934;SDS011;2462;51.456;7.248;2023-07-28T07:54:13;3.33;;;3.03;;
2934;SDS011;2462;51.456;7.248;2023-07-28T07:56:41;3.80;;;3.50;;
2934;SDS011;2462;51.456;7.248;2023-07-28T07:59:07;5.83;;;3.60;;
2934;SDS011;2462;51.456;7.248;2023-07-28T08:01:33;3.50;;;3.20;;
2934;SDS011;2462;51.456;7.248;2023-07-28T08:03:58;4.53;;;3.90;;
2934;SDS011;2462;51.456;7.248;2023-07-28T08:06:24;4.10;;;3.80;;
2934;SDS011;2462;51.456;7.248;2023-07-28T08:08:49;3.47;;;3.17;;
2934;SDS011;2462;51.456;7.248;2023-07-28T08:11:17;5.53;;;3.23;;
2934;SDS011;2462;51.456;7.248;2023-07-28T08:13:42;4.93;;;3.47;;
2934;SDS011;2462;51.456;7.248;2023-07-28T08:16:08;3.50;;;3.20;;
2934;SDS011;2462;51.456;7.248;2023-07-28T08:18:34;5.10;;;3.97;;
2934;SDS011;2462;51.456;7.248;2023-07-28T08:20:59;9.23;;;6.40;;
2934;SDS011;2462;51.456;7.248;2023-07-28T08:23:25;13.10;;;5.83;;
2934;SDS011;2462;51.456;7.248;2023-07-28T08:25:51;10.27;;;6.47;;
2934;SDS011;2462;51.456;7.248;2023-07-28T08:28:18;8.20;;;6.00;;
2934;SDS011;2462;51.456;7.248;2023-07-28T08:30:44;6.63;;;6.00;;
2934;SDS011;2462;51.456;7.248;2023-07-28T08:33:10;5.97;;;5.47;;
2934;SDS011;2462;51.456;7.248;2023-07-28T08:35:36;8.37;;;6.40;;
2934;SDS011;2462;51.456;7.248;2023-07-28T08:38:01;4.90;;;4.30;;
2934;SDS011;2462;51.456;7.248;2023-07-28T08:40:28;6.20;;;4.43;;
2934;SDS011;2462;51.456;7.248;2023-07-28T08:42:54;7.13;;;4.33;;
2934;SDS011;2462;51.456;7.248;2023-07-28T08:45:20;4.80;;;4.30;;
2934;SDS011;2462;51.456;7.248;2023-07-28T08:47:48;3.63;;;3.33;;
2934;SDS011;2462;51.456;7.248;2023-07-28T08:50:14;8.07;;;4.20;;
2934;SDS011;2462;51.456;7.248;2023-07-28T08:52:39;4.53;;;3.67;;
2934;SDS011;2462;51.456;7.248;2023-07-28T08:55:05;3.93;;;3.50;;
2934;SDS011;2462;51.456;7.248;2023-07-28T08:57:31;3.80;;;3.50;;
2934;SDS011;2462;51.456;7.248;2023-07-28T08:59:57;6.73;;;3.90;;
2934;SDS011;2462;51.456;7.248;2023-07-28T09:02:22;5.60;;;3.87;;
2934;SDS011;2462;51.456;7.248;2023-07-28T09:04:48;3.97;;;3.20;;
2934;SDS011;2462;51.456;7.248;2023-07-28T09:07:14;4.17;;;3.37;;
2934;SDS011;2462;51.456;7.248;2023-07-28T09:09:40;3.27;;;2.93;;
2934;SDS011;2462;51.456;7.248;2023-07-28T09:12:06;3.70;;;3.07;;
2934;SDS011;2462;51.456;7.248;2023-07-28T09:14:34;2.97;;;2.77;;
2934;SDS011;2462;51.456;7.248;2023-07-28T09:17:19;3.27;;;2.97;;
2934;SDS011;2462;51.456;7.248;2023-07-28T09:19:49;3.53;;;3.23;;
2934;SDS011;2462;51.456;7.248;2023-07-28T09:22:18;2.60;;;2.33;;
2934;SDS011;2462;51.456;7.248;2023-07-28T09:24:45;2.10;;;1.90;;
2934;SDS011;2462;51.456;7.248;2023-07-28T09:27:19;2.30;;;1.47;;
2934;SDS011;2462;51.456;7.248;2023-07-28T09:29:49;2.37;;;1.70;;
2934;SDS011;2462;51.456;7.248;2023-07-28T09:32:16;1.53;;;1.13;;
2934;SDS011;2462;51.456;7.248;2023-07-28T09:34:50;2.03;;;1.07;;
2934;SDS011;2462;51.456;7.248;2023-07-28T09:37:32;2.10;;;0.73;;
2934;SDS011;2462;51.456;7.248;2023-07-28T09:39:59;1.00;;;0.90;;
2934;SDS011;2462;51.456;7.248;2023-07-28T09:42:29;1.27;;;1.17;;
2934;SDS011;2462;51.456;7.248;2023-07-28T09:44:55;1.30;;;1.00;;
2934;SDS011;2462;51.456;7.248;2023-07-28T09:47:21;1.10;;;0.80;;
2934;SDS011;2462;51.456;7.248;2023-07-28T09:49:46;2.90;;;1.37;;
2934;SDS011;2462;51.456;7.248;2023-07-28T09:52:15;1.80;;;1.17;;
2934;SDS011;2462;51.456;7.248;2023-07-28T09:54:43;1.30;;;0.90;;
2934;SDS011;2462;51.456;7.248;2023-07-28T09:57:14;1.97;;;1.43;;
2934;SDS011;2462;51.456;7.248;2023-07-28T09:59:45;1.73;;;1.00;;
2934;SDS011;2462;51.456;7.248;2023-07-28T10:02:12;2.50;;;1.67;;
2934;SDS011;2462;51.456;7.248;2023-07-28T10:04:38;1.30;;;1.00;;
2934;SDS011;2462;51.456;7.248;2023-07-28T10:07:04;1.50;;;1.27;;
2934;SDS011;2462;51.456;7.248;2023-07-28T10:09:30;1.80;;;1.27;;
2934;SDS011;2462;51.456;7.248;2023-07-28T10:11:58;2.10;;;1.30;;
2934;SDS011;2462;51.456;7.248;2023-07-28T10:14:25;3.77;;;1.50;;
2934;SDS011;2462;51.456;7.248;2023-07-28T10:16:59;1.83;;;1.43;;
2934;SDS011;2462;51.456;7.248;2023-07-28T10:19:27;2.00;;;1.43;;
2934;SDS011;2462;51.456;7.248;2023-07-28T10:22:06;1.50;;;1.40;;
2934;SDS011;2462;51.456;7.248;2023-07-28T10:24:52;1.50;;;1.40;;
2934;SDS011;2462;51.456;7.248;2023-07-28T10:27:28;3.60;;;1.70;;
2934;SDS011;2462;51.456;7.248;2023-07-28T10:29:56;2.23;;;1.60;;
2934;SDS011;2462;51.456;7.248;2023-07-28T10:32:27;1.90;;;1.73;;
2934;SDS011;2462;51.456;7.248;2023-07-28T10:35:39;3.50;;;1.70;;
2934;SDS011;2462;51.456;7.248;2023-07-28T10:37:48;7.67;;;2.27;;
2934;SDS011;2462;51.456;7.248;2023-07-28T10:42:46;1.67;;;1.57;;
2934;SDS011;2462;51.456;7.248;2023-07-28T10:45:12;5.30;;;2.20;;
2934;SDS011;2462;51.456;7.248;2023-07-28T10:47:39;2.83;;;2.50;;
2934;SDS011;2462;51.456;7.248;2023-07-28T10:50:05;3.10;;;2.80;;
2934;SDS011;2462;51.456;7.248;2023-07-28T10:52:34;5.93;;;3.03;;
2934;SDS011;2462;51.456;7.248;2023-07-28T10:55:01;4.33;;;2.43;;
2934;SDS011;2462;51.456;7.248;2023-07-28T10:57:27;3.20;;;2.90;;
2934;SDS011;2462;51.456;7.248;2023-07-28T10:59:53;2.67;;;2.47;;
2934;SDS011;2462;51.456;7.248;2023-07-28T11:02:19;4.40;;;2.67;;
2934;SDS011;2462;51.456;7.248;2023-07-28T11:04:48;8.60;;;4.20;;
2934;SDS011;2462;51.456;7.248;2023-07-28T11:07:14;3.70;;;2.40;;
2934;SDS011;2462;51.456;7.248;2023-07-28T11:09:40;2.27;;;2.17;;
2934;SDS011;2462;51.456;7.248;2023-07-28T11:12:08;5.70;;;2.43;;
2934;SDS011;2462;51.456;7.248;2023-07-28T11:14:35;3.10;;;2.53;;
2934;SDS011;2462;51.456;7.248;2023-07-28T11:17:01;3.10;;;2.40;;
2934;SDS011;2462;51.456;7.248;2023-07-28T11:19:27;8.23;;;2.47;;
2934;SDS011;2462;51.456;7.248;2023-07-28T11:21:54;4.70;;;2.20;;
2934;SDS011;2462;51.456;7.248;2023-07-28T11:24:20;2.20;;;1.67;;
2934;SDS011;2462;51.456;7.248;2023-07-28T11:26:48;2.00;;;1.80;;
2934;SDS011;2462;51.456;7.248;2023-07-28T11:29:15;1.93;;;1.73;;
2934;SDS011;2462;51.456;7.248;2023-07-28T11:31:41;2.40;;;2.10;;
2934;SDS011;2462;51.456;7.248;2023-07-28T11:34:17;1.87;;;1.77;;
2934;SDS011;2462;51.456;7.248;2023-07-28T11:36:43;1.80;;;1.70;;
2934;SDS011;2462;51.456;7.248;2023-07-28T11:39:09;3.43;;;2.40;;
2934;SDS011;2462;51.456;7.248;2023-07-28T11:41:35;3.73;;;1.63;;
2934;SDS011;2462;51.456;7.248;2023-07-28T11:44:02;1.73;;;1.60;;
2934;SDS011;2462;51.456;7.248;2023-07-28T11:46:35;2.00;;;1.53;;
2934;SDS011;2462;51.456;7.248;2023-07-28T11:49:09;1.43;;;1.33;;
2934;SDS011;2462;51.456;7.248;2023-07-28T11:51:39;2.40;;;1.70;;
2934;SDS011;2462;51.456;7.248;2023-07-28T11:54:05;1.67;;;1.57;;
2934;SDS011;2462;51.456;7.248;2023-07-28T11:56:32;2.80;;;1.33;;
2934;SDS011;2462;51.456;7.248;2023-07-28T11:58:59;2.20;;;1.73;;
2934;SDS011;2462;51.456;7.248;2023-07-28T12:01:25;1.77;;;1.37;;
2934;SDS011;2462;51.456;7.248;2023-07-28T12:03:51;1.37;;;1.27;;
2934;SDS011;2462;51.456;7.248;2023-07-28T12:06:17;1.33;;;1.23;;
2934;SDS011;2462;51.456;7.248;2023-07-28T12:08:43;1.50;;;1.30;;
2934;SDS011;2462;51.456;7.248;2023-07-28T12:11:13;1.43;;;1.33;;
2934;SDS011;2462;51.456;7.248;2023-07-28T12:13:49;1.60;;;1.50;;
2934;SDS011;2462;51.456;7.248;2023-07-28T12:16:37;1.73;;;1.17;;
2934;SDS011;2462;51.456;7.248;2023-07-28T12:19:04;1.70;;;1.47;;
2934;SDS011;2462;51.456;7.248;2023-07-28T12:21:30;2.20;;;1.63;;
2934;SDS011;2462;51.456;7.248;2023-07-28T12:23:56;1.83;;;1.57;;
2934;SDS011;2462;51.456;7.248;2023-07-28T12:26:22;4.60;;;1.33;;
2934;SDS011;2462;51.456;7.248;2023-07-28T12:28:48;1.50;;;1.40;;
2934;SDS011;2462;51.456;7.248;2023-07-28T12:31:14;2.90;;;1.20;;
2934;SDS011;2462;51.456;7.248;2023-07-28T12:33:40;3.73;;;1.50;;
2934;SDS011;2462;51.456;7.248;2023-07-28T12:36:06;1.67;;;1.30;;
2934;SDS011;2462;51.456;7.248;2023-07-28T12:38:32;1.23;;;1.10;;
2934;SDS011;2462;51.456;7.248;2023-07-28T12:40:58;5.03;;;1.30;;
2934;SDS011;2462;51.456;7.248;2023-07-28T12:43:24;3.63;;;1.30;;
2934;SDS011;2462;51.456;7.248;2023-07-28T12:45:51;1.30;;;1.00;;
2934;SDS011;2462;51.456;7.248;2023-07-28T12:48:18;2.57;;;1.20;;
2934;SDS011;2462;51.456;7.248;2023-07-28T12:50:44;1.27;;;0.90;;
2934;SDS011;2462;51.456;7.248;2023-07-28T12:53:11;1.77;;;1.10;;
2934;SDS011;2462;51.456;7.248;2023-07-28T12:55:37;1.23;;;0.80;;
2934;SDS011;2462;51.456;7.248;2023-07-28T12:58:03;6.90;;;1.10;;
2934;SDS011;2462;51.456;7.248;2023-07-28T13:00:29;2.23;;;0.90;;
2934;SDS011;2462;51.456;7.248;2023-07-28T13:02:55;3.23;;;0.80;;
2934;SDS011;2462;51.456;7.248;2023-07-28T13:05:21;2.43;;;0.80;;
2934;SDS011;2462;51.456;7.248;2023-07-28T13:07:47;1.00;;;0.80;;
2934;SDS011;2462;51.456;7.248;2023-07-28T13:10:13;1.20;;;0.90;;
2934;SDS011;2462;51.456;7.248;2023-07-28T13:12:39;2.30;;;1.00;;
2934;SDS011;2462;51.456;7.248;2023-07-28T13:15:05;9.13;;;1.33;;
2934;SDS011;2462;51.456;7.248;2023-07-28T13:17:31;3.20;;;0.87;;
2934;SDS011;2462;51.456;7.248;2023-07-28T13:19:57;12.73;;;1.27;;
2934;SDS011;2462;51.456;7.248;2023-07-28T13:22:23;5.07;;;0.90;;
2934;SDS011;2462;51.456;7.248;2023-07-28T13:24:51;1.50;;;1.00;;
2934;SDS011;2462;51.456;7.248;2023-07-28T13:27:17;2.60;;;0.90;;
2934;SDS011;2462;51.456;7.248;2023-07-28T13:29:43;2.00;;;1.30;;
2934;SDS011;2462;51.456;7.248;2023-07-28T13:32:16;1.10;;;0.80;;
2934;SDS011;2462;51.456;7.248;2023-07-28T13:34:42;3.60;;;1.03;;
2934;SDS011;2462;51.456;7.248;2023-07-28T13:37:09;1.90;;;0.80;;
2934;SDS011;2462;51.456;7.248;2023-07-28T13:39:35;1.00;;;0.83;;
2934;SDS011;2462;51.456;7.248;2023-07-28T13:42:00;2.03;;;1.10;;
2934;SDS011;2462;51.456;7.248;2023-07-28T13:44:26;1.87;;;1.10;;
2934;SDS011;2462;51.456;7.248;2023-07-28T13:46:52;1.67;;;1.00;;
2934;SDS011;2462;51.456;7.248;2023-07-28T13:49:18;1.20;;;1.03;;
2934;SDS011;2462;51.456;7.248;2023-07-28T13:51:44;2.20;;;1.13;;
2934;SDS011;2462;51.456;7.248;2023-07-28T13:54:10;1.77;;;1.30;;
2934;SDS011;2462;51.456;7.248;2023-07-28T13:56:36;2.70;;;1.37;;
2934;SDS011;2462;51.456;7.248;2023-07-28T13:59:02;1.40;;;1.30;;
2934;SDS011;2462;51.456;7.248;2023-07-28T14:01:30;1.47;;;1.30;;
2934;SDS011;2462;51.456;7.248;2023-07-28T14:03:56;3.53;;;1.40;;
2934;SDS011;2462;51.456;7.248;2023-07-28T14:06:21;2.03;;;1.17;;
2934;SDS011;2462;51.456;7.248;2023-07-28T14:08:47;1.37;;;1.27;;
2934;SDS011;2462;51.456;7.248;2023-07-28T14:11:13;1.30;;;1.20;;
2934;SDS011;2462;51.456;7.248;2023-07-28T14:13:39;1.20;;;1.10;;
2934;SDS011;2462;51.456;7.248;2023-07-28T14:16:05;1.20;;;1.10;;
2934;SDS011;2462;51.456;7.248;2023-07-28T14:18:34;1.93;;;1.10;;
2934;SDS011;2462;51.456;7.248;2023-07-28T14:21:00;1.23;;;1.13;;
2934;SDS011;2462;51.456;7.248;2023-07-28T14:23:27;1.10;;;0.90;;
2934;SDS011;2462;51.456;7.248;2023-07-28T14:25:53;1.47;;;1.00;;
2934;SDS011;2462;51.456;7.248;2023-07-28T14:28:20;1.43;;;0.90;;
2934;SDS011;2462;51.456;7.248;2023-07-28T14:30:46;1.70;;;1.10;;
2934;SDS011;2462;51.456;7.248;2023-07-28T14:33:13;6.73;;;1.17;;
2934;SDS011;2462;51.456;7.248;2023-07-28T14:35:40;2.90;;;1.10;;
2934;SDS011;2462;51.456;7.248;2023-07-28T14:38:09;1.10;;;0.90;;
2934;SDS011;2462;51.456;7.248;2023-07-28T14:40:35;1.10;;;1.00;;
2934;SDS011;2462;51.456;7.248;2023-07-28T14:43:02;3.63;;;0.90;;
2934;SDS011;2462;51.456;7.248;2023-07-28T14:45:28;1.10;;;0.80;;
2934;SDS011;2462;51.456;7.248;2023-07-28T14:47:54;2.57;;;1.07;;
2934;SDS011;2462;51.456;7.248;2023-07-28T14:50:20;1.07;;;0.70;;
2934;SDS011;2462;51.456;7.248;2023-07-28T14:52:47;2.33;;;0.90;;
2934;SDS011;2462;51.456;7.248;2023-07-28T14:55:13;1.10;;;0.97;;
2934;SDS011;2462;51.456;7.248;2023-07-28T14:57:39;1.80;;;1.10;;
2934;SDS011;2462;51.456;7.248;2023-07-28T15:00:05;1.83;;;0.90;;
2934;SDS011;2462;51.456;7.248;2023-07-28T15:02:32;2.83;;;1.47;;
2934;SDS011;2462;51.456;7.248;2023-07-28T15:04:58;1.10;;;0.80;;
2934;SDS011;2462;51.456;7.248;2023-07-28T15:07:24;1.80;;;0.90;;
2934;SDS011;2462;51.456;7.248;2023-07-28T15:09:50;2.07;;;0.90;;
2934;SDS011;2462;51.456;7.248;2023-07-28T15:12:16;2.20;;;1.10;;
2934;SDS011;2462;51.456;7.248;2023-07-28T15:14:42;1.00;;;0.80;;
2934;SDS011;2462;51.456;7.248;2023-07-28T15:17:08;0.90;;;0.67;;
2934;SDS011;2462;51.456;7.248;2023-07-28T15:19:34;2.03;;;0.70;;
2934;SDS011;2462;51.456;7.248;2023-07-28T15:22:00;0.90;;;0.60;;